createdAt,value
2017-10-16T00:01:22.414Z,29.92
2017-10-16T00:03:50.211Z,30.50
2017-10-16T00:06:17.993Z,31.08
2017-10-16T00:08:45.840Z,31.15
2017-10-16T00:11:13.622Z,29.40
2017-10-16T00:13:41.476Z,29.42
2017-10-16T00:16:09.307Z,30.17
2017-10-16T00:18:37.870Z,31.62
2017-10-16T00:21:06.439Z,29.63
2017-10-16T00:23:34.259Z,30.88
2017-10-16T00:26:02.040Z,28.20
2017-10-16T00:28:29.827Z,35.25
2017-10-16T00:30:57.657Z,33.58
2017-10-16T00:33:25.446Z,30.58
2017-10-16T00:35:53.285Z,27.45
2017-10-16T00:38:21.118Z,31.00
2017-10-16T00:40:48.944Z,29.50
2017-10-16T00:43:16.741Z,27.73
2017-10-16T00:45:44.581Z,28.33
2017-10-16T00:48:13.153Z,30.45
2017-10-16T00:50:40.957Z,31.02
2017-10-16T00:53:08.837Z,28.85
2017-10-16T00:55:36.655Z,27.83
2017-10-16T00:58:04.482Z,29.10
2017-10-16T01:00:32.375Z,28.30
2017-10-16T01:03:00.222Z,30.00
2017-10-16T01:05:28.795Z,29.98
2017-10-16T01:07:56.912Z,29.37
2017-10-16T01:10:25.479Z,31.42
2017-10-16T01:12:53.308Z,31.05
2017-10-16T01:15:21.209Z,29.27
2017-10-16T01:17:49.772Z,32.55
2017-10-16T01:20:17.583Z,34.17
2017-10-16T01:22:45.448Z,28.08
2017-10-16T01:25:13.285Z,32.95
2017-10-16T01:27:41.876Z,32.45
2017-10-16T01:30:09.775Z,31.70
2017-10-16T01:32:38.081Z,30.12
2017-10-16T01:35:06.298Z,35.45
2017-10-16T01:37:34.217Z,30.55
2017-10-16T01:40:02.046Z,34.03
2017-10-16T01:42:29.884Z,34.42
2017-10-16T01:44:57.827Z,33.85
2017-10-16T01:47:26.428Z,30.98
2017-10-16T01:49:54.259Z,30.48
2017-10-16T01:52:22.126Z,30.80
2017-10-16T01:54:49.934Z,29.30
2017-10-16T01:57:17.770Z,32.20
2017-10-16T01:59:46.105Z,34.90
2017-10-16T02:02:13.913Z,34.80
2017-10-16T02:04:41.745Z,31.77
2017-10-16T02:07:09.597Z,29.80
2017-10-16T02:09:37.388Z,31.12
2017-10-16T02:12:05.953Z,31.25
2017-10-16T02:14:33.829Z,33.70
2017-10-16T02:17:02.394Z,37.78
2017-10-16T02:19:30.887Z,38.70
2017-10-16T02:21:59.500Z,35.60
2017-10-16T02:24:27.322Z,34.85
2017-10-16T02:26:55.134Z,35.03
2017-10-16T02:29:22.961Z,31.83
2017-10-16T02:31:51.529Z,30.98
2017-10-16T02:34:19.341Z,30.80
2017-10-16T02:36:47.188Z,31.65
2017-10-16T02:39:16.350Z,32.22
2017-10-16T02:41:44.138Z,34.05
2017-10-16T02:44:12.068Z,31.33
2017-10-16T02:46:40.343Z,33.40
2017-10-16T02:49:08.135Z,36.10
2017-10-16T02:51:35.998Z,33.63
2017-10-16T02:54:04.576Z,32.85
2017-10-16T02:56:33.139Z,31.30
2017-10-16T02:59:01.038Z,34.10
2017-10-16T03:01:28.863Z,30.65
2017-10-16T03:03:56.680Z,32.30
2017-10-16T03:06:24.520Z,35.47
2017-10-16T03:08:52.635Z,37.63
2017-10-16T03:11:20.526Z,38.35
2017-10-16T03:13:49.168Z,40.80
2017-10-16T03:16:16.995Z,39.63
2017-10-16T03:18:45.564Z,36.78
2017-10-16T03:21:13.405Z,38.28
2017-10-16T03:23:41.207Z,37.92
2017-10-16T03:26:09.840Z,34.15
2017-10-16T03:28:37.678Z,35.15
2017-10-16T03:31:06.233Z,36.90
2017-10-16T03:33:34.061Z,39.75
2017-10-16T03:36:01.976Z,37.20
2017-10-16T03:38:29.801Z,38.85
2017-10-16T03:40:57.873Z,35.90
2017-10-16T03:43:26.520Z,34.22
2017-10-16T03:45:54.360Z,37.35
2017-10-16T03:48:23.017Z,36.78
2017-10-16T03:50:50.925Z,33.88
2017-10-16T03:53:18.732Z,37.65
2017-10-16T03:55:47.322Z,34.70
2017-10-16T03:58:16.120Z,34.38
2017-10-16T04:00:44.462Z,36.28
2017-10-16T04:03:12.275Z,39.40
2017-10-16T04:05:40.182Z,36.53
2017-10-16T04:08:08.172Z,37.58
2017-10-16T04:10:36.800Z,33.38
2017-10-16T04:13:04.703Z,30.95
2017-10-16T04:15:33.315Z,32.97
2017-10-16T04:18:01.177Z,37.10
2017-10-16T04:20:29.076Z,37.20
2017-10-16T04:22:56.970Z,36.13
2017-10-16T04:25:24.814Z,33.88
2017-10-16T04:27:52.786Z,33.63
2017-10-16T04:30:20.816Z,40.42
2017-10-16T04:32:48.753Z,37.90
2017-10-16T04:35:17.442Z,37.53
2017-10-16T04:37:46.075Z,38.20
2017-10-16T04:40:13.944Z,39.22
2017-10-16T04:42:42.009Z,37.20
2017-10-16T04:45:09.876Z,35.67
2017-10-16T04:47:38.936Z,40.72
2017-10-16T04:50:06.849Z,34.67
2017-10-16T04:52:34.723Z,39.28
2017-10-16T04:55:03.375Z,38.40
2017-10-16T04:57:31.303Z,39.05
2017-10-16T04:59:59.214Z,35.40
2017-10-16T05:02:27.093Z,37.80
2017-10-16T05:04:55.818Z,37.30
2017-10-16T05:07:23.683Z,39.20
2017-10-16T05:09:51.568Z,38.85
2017-10-16T05:12:19.470Z,37.40
2017-10-16T05:14:48.588Z,35.05
2017-10-16T05:17:16.478Z,35.17
2017-10-16T05:19:44.386Z,33.83
2017-10-16T05:22:13.056Z,34.83
2017-10-16T05:24:40.915Z,35.97
2017-10-16T05:27:08.826Z,34.30
2017-10-16T05:29:37.479Z,33.38
2017-10-16T05:32:05.363Z,34.33
2017-10-16T05:34:34.045Z,36.55
2017-10-16T05:37:02.767Z,36.40
2017-10-16T05:39:30.730Z,37.42
2017-10-16T05:41:58.684Z,36.00
2017-10-16T05:44:26.909Z,40.00
2017-10-16T05:46:54.826Z,41.30
2017-10-16T05:49:22.777Z,37.05
2017-10-16T05:51:51.566Z,36.90
2017-10-16T05:54:19.477Z,32.95
2017-10-16T05:56:47.433Z,34.75
2017-10-16T05:59:15.465Z,31.50
2017-10-16T06:01:43.393Z,31.05
2017-10-16T06:04:11.326Z,28.75
2017-10-16T06:06:39.303Z,29.27
2017-10-16T06:09:07.190Z,28.00
2017-10-16T06:11:35.146Z,27.13
2017-10-16T06:14:03.150Z,26.77
2017-10-16T06:16:31.120Z,26.40
2017-10-16T06:18:59.820Z,26.80
2017-10-16T06:21:27.692Z,26.08
2017-10-16T06:23:56.142Z,23.17
2017-10-16T06:26:24.812Z,23.10
2017-10-16T06:28:52.691Z,22.30
2017-10-16T06:31:21.326Z,19.65
2017-10-16T06:33:49.203Z,18.37
2017-10-16T06:36:17.056Z,16.05
2017-10-16T06:38:45.785Z,21.92
2017-10-16T06:41:14.415Z,19.87
2017-10-16T06:43:42.268Z,16.23
2017-10-16T06:46:10.840Z,20.88
2017-10-16T06:48:38.760Z,16.83
2017-10-16T06:51:06.565Z,16.90
2017-10-16T06:53:35.149Z,18.23
2017-10-16T06:56:03.061Z,16.02
2017-10-16T06:58:30.845Z,18.87
2017-10-16T07:00:59.420Z,16.40
2017-10-16T07:03:27.237Z,15.90
2017-10-16T07:05:55.008Z,15.98
2017-10-16T07:08:22.814Z,14.55
2017-10-16T07:10:50.637Z,14.07
2017-10-16T07:13:18.435Z,13.65
2017-10-16T07:15:46.232Z,13.45
2017-10-16T07:18:14.048Z,14.87
2017-10-16T07:20:41.830Z,13.23
2017-10-16T07:23:10.386Z,13.05
2017-10-16T07:25:38.267Z,15.35
2017-10-16T07:28:06.050Z,14.45
2017-10-16T07:30:34.603Z,12.10
2017-10-16T07:33:02.430Z,11.63
2017-10-16T07:35:30.230Z,13.30
2017-10-16T07:37:58.045Z,12.82
2017-10-16T07:40:25.912Z,10.55
2017-10-16T07:42:53.716Z,13.48
2017-10-16T07:45:21.509Z,11.40
2017-10-16T07:47:50.121Z,12.40
2017-10-16T07:50:17.913Z,13.70
2017-10-16T07:52:45.715Z,13.07
2017-10-16T07:55:13.539Z,12.73
2017-10-16T07:57:41.344Z,14.00
2017-10-16T08:00:09.135Z,12.03
2017-10-16T08:02:36.994Z,12.83
2017-10-16T08:05:04.815Z,10.57
2017-10-16T08:07:32.618Z,9.67
2017-10-16T08:10:00.443Z,10.10
2017-10-16T08:12:28.994Z,9.40
2017-10-16T08:14:56.844Z,9.17
2017-10-16T08:17:24.688Z,11.33
2017-10-16T08:19:52.484Z,9.67
2017-10-16T08:22:20.311Z,11.13
2017-10-16T08:24:48.182Z,10.57
2017-10-16T08:27:16.005Z,10.17
2017-10-16T08:29:44.579Z,9.10
2017-10-16T08:32:12.446Z,9.37
2017-10-16T08:34:41.033Z,9.90
2017-10-16T08:37:09.631Z,9.60
2017-10-16T08:39:37.541Z,8.63
2017-10-16T08:42:05.375Z,8.70
2017-10-16T08:44:33.186Z,9.40
2017-10-16T08:47:01.064Z,7.80
2017-10-16T08:49:28.870Z,7.23
2017-10-16T08:51:56.719Z,10.83
2017-10-16T08:54:24.579Z,6.40
2017-10-16T08:56:52.394Z,6.15
2017-10-16T08:59:20.183Z,4.57
2017-10-16T09:01:48.821Z,5.00
2017-10-16T09:04:16.685Z,4.47
2017-10-16T09:06:44.493Z,6.20
2017-10-16T09:09:12.429Z,5.80
2017-10-16T09:11:40.310Z,6.47
2017-10-16T09:14:08.111Z,5.37
2017-10-16T09:16:35.956Z,5.65
2017-10-16T09:19:04.544Z,5.60
2017-10-16T09:21:32.344Z,5.15
2017-10-16T09:24:00.194Z,8.55
2017-10-16T09:26:28.025Z,5.10
2017-10-16T09:28:56.659Z,5.95
2017-10-16T09:31:25.306Z,5.60
2017-10-16T09:33:53.099Z,5.10
2017-10-16T09:36:20.919Z,4.50
2017-10-16T09:38:49.539Z,5.30
2017-10-16T09:41:17.333Z,4.05
2017-10-16T09:43:45.144Z,4.65
2017-10-16T09:46:12.995Z,4.95
2017-10-16T09:48:41.237Z,4.18
2017-10-16T09:51:09.028Z,5.37
2017-10-16T09:53:36.887Z,4.20
2017-10-16T09:56:05.474Z,6.25
2017-10-16T09:58:33.280Z,4.62
2017-10-16T10:01:01.149Z,5.12
2017-10-16T10:03:28.960Z,4.68
2017-10-16T10:05:57.539Z,3.72
2017-10-16T10:08:26.148Z,3.62
2017-10-16T10:10:53.948Z,5.03
2017-10-16T10:13:21.751Z,4.20
2017-10-16T10:15:50.395Z,5.05
2017-10-16T10:18:18.189Z,4.45
2017-10-16T10:20:46.743Z,6.05
2017-10-16T10:23:14.566Z,4.55
2017-10-16T10:25:42.355Z,4.70
2017-10-16T10:28:10.119Z,5.00
2017-10-16T10:30:37.945Z,4.50
2017-10-16T10:33:05.762Z,4.50
2017-10-16T10:35:33.537Z,4.53
2017-10-16T10:38:02.713Z,4.95
2017-10-16T10:40:30.491Z,4.60
2017-10-16T10:42:59.058Z,5.47
2017-10-16T10:45:26.909Z,4.60
2017-10-16T10:47:54.736Z,4.28
2017-10-16T10:50:22.566Z,4.45
2017-10-16T10:52:51.192Z,4.18
2017-10-16T10:55:18.993Z,4.68
2017-10-16T10:57:46.758Z,5.53
2017-10-16T11:00:14.593Z,4.40
2017-10-16T11:02:42.408Z,4.20
2017-10-16T11:05:10.969Z,4.50
2017-10-16T11:07:39.595Z,3.80
2017-10-16T11:10:07.432Z,4.32
2017-10-16T11:12:35.219Z,3.92
2017-10-16T11:15:03.815Z,4.30
2017-10-16T11:17:31.648Z,4.03
2017-10-16T11:20:00.236Z,4.32
2017-10-16T11:22:28.097Z,3.60
2017-10-16T11:24:55.904Z,6.60
2017-10-16T11:27:23.715Z,3.60
2017-10-16T11:29:52.338Z,3.95
2017-10-16T11:32:20.143Z,3.90
2017-10-16T11:34:48.712Z,3.58
2017-10-16T11:37:16.573Z,5.00
2017-10-16T11:39:44.385Z,4.78
2017-10-16T11:42:12.247Z,4.35
2017-10-16T11:44:40.116Z,4.43
2017-10-16T11:47:07.941Z,4.30
2017-10-16T11:49:36.521Z,3.80
2017-10-16T11:52:05.136Z,3.55
2017-10-16T11:54:32.946Z,3.85
2017-10-16T11:57:00.756Z,3.75
2017-10-16T11:59:28.630Z,3.92
2017-10-16T12:01:56.428Z,4.28
2017-10-16T12:04:24.253Z,3.83
2017-10-16T12:06:52.096Z,3.85
2017-10-16T12:09:19.907Z,3.70
2017-10-16T12:11:47.719Z,3.87
2017-10-16T12:14:16.339Z,4.05
2017-10-16T12:16:44.147Z,4.00
2017-10-16T12:19:12.024Z,3.72
2017-10-16T12:21:39.886Z,3.75
2017-10-16T12:24:08.466Z,4.18
2017-10-16T12:26:37.076Z,3.03
2017-10-16T12:29:04.920Z,4.07
2017-10-16T12:31:32.741Z,3.95
2017-10-16T12:34:00.552Z,3.50
2017-10-16T12:36:28.382Z,3.55
2017-10-16T12:38:56.191Z,4.45
2017-10-16T12:41:24.207Z,4.25
2017-10-16T12:43:52.115Z,3.70
2017-10-16T12:46:19.921Z,4.55
2017-10-16T12:48:47.715Z,4.25
2017-10-16T12:51:15.577Z,5.30
2017-10-16T12:53:44.145Z,3.92
2017-10-16T12:56:11.934Z,4.75
2017-10-16T12:58:40.573Z,5.00
2017-10-16T13:01:08.388Z,4.78
2017-10-16T13:03:36.202Z,4.72
2017-10-16T13:06:04.211Z,4.00
2017-10-16T13:08:32.039Z,4.05
2017-10-16T13:10:59.846Z,5.00
2017-10-16T13:13:27.684Z,4.60
2017-10-16T13:15:56.258Z,3.95
2017-10-16T13:18:24.099Z,4.93
2017-10-16T13:20:51.953Z,4.18
2017-10-16T13:23:19.779Z,4.60
2017-10-16T13:25:47.602Z,4.80
2017-10-16T13:28:15.462Z,6.40
2017-10-16T13:30:43.288Z,4.40
2017-10-16T13:33:11.129Z,4.40
2017-10-16T13:35:38.991Z,6.35
2017-10-16T13:38:06.800Z,4.70
2017-10-16T13:40:34.600Z,4.15
2017-10-16T13:43:03.223Z,4.62
2017-10-16T13:45:31.017Z,7.55
2017-10-16T13:47:58.837Z,5.15
2017-10-16T13:50:26.670Z,3.83
2017-10-16T13:52:55.229Z,4.70
2017-10-16T13:55:23.051Z,4.70
2017-10-16T13:57:50.888Z,5.50
2017-10-16T14:00:19.454Z,4.47
2017-10-16T14:02:47.260Z,4.55
2017-10-16T14:05:15.098Z,5.10
2017-10-16T14:07:43.665Z,4.30
2017-10-16T14:10:12.227Z,5.12
2017-10-16T14:12:40.084Z,5.30
2017-10-16T14:15:07.905Z,5.37
2017-10-16T14:17:35.703Z,5.20
2017-10-16T14:20:03.584Z,5.32
2017-10-16T14:22:31.409Z,5.43
2017-10-16T14:24:59.236Z,6.53
2017-10-16T14:27:27.889Z,5.47
2017-10-16T14:29:55.715Z,4.78
2017-10-16T14:32:23.546Z,4.85
2017-10-16T14:34:51.387Z,5.45
2017-10-16T14:37:19.984Z,5.57
2017-10-16T14:39:48.544Z,4.75
2017-10-16T14:42:16.432Z,5.18
2017-10-16T14:44:44.224Z,4.82
2017-10-16T14:47:12.043Z,4.07
2017-10-16T14:49:40.678Z,4.78
2017-10-16T14:52:08.512Z,7.18
2017-10-16T14:54:36.331Z,5.93
2017-10-16T14:57:04.204Z,4.80
2017-10-16T14:59:31.994Z,4.57
2017-10-16T15:02:00.586Z,5.45
2017-10-16T15:04:28.511Z,4.93
2017-10-16T15:06:56.316Z,5.37
2017-10-16T15:09:24.951Z,4.68
2017-10-16T15:11:52.805Z,5.97
2017-10-16T15:14:20.609Z,6.30
2017-10-16T15:16:49.176Z,5.55
2017-10-16T15:19:17.798Z,5.05
2017-10-16T15:21:45.618Z,5.22
2017-10-16T15:24:14.195Z,5.32
2017-10-16T15:26:42.036Z,4.75
2017-10-16T15:29:09.842Z,6.50
2017-10-16T15:31:37.667Z,7.50
2017-10-16T15:34:05.533Z,5.55
2017-10-16T15:36:33.331Z,5.40
2017-10-16T15:39:01.132Z,5.80
2017-10-16T15:41:28.990Z,6.07
2017-10-16T15:43:57.099Z,5.57
2017-10-16T15:46:24.908Z,5.47
2017-10-16T15:48:52.819Z,5.87
2017-10-16T15:51:20.631Z,4.10
2017-10-16T15:53:48.426Z,5.85
2017-10-16T15:56:16.272Z,5.57
2017-10-16T15:58:44.088Z,4.82
2017-10-16T16:01:11.896Z,5.43
2017-10-16T16:03:39.725Z,7.35
2017-10-16T16:06:08.381Z,8.02
2017-10-16T16:08:36.204Z,8.48
2017-10-16T16:11:04.468Z,8.63
2017-10-16T16:13:32.349Z,7.93
2017-10-16T16:16:00.149Z,7.97
2017-10-16T16:18:27.999Z,10.32
2017-10-16T16:20:55.810Z,11.68
2017-10-16T16:23:23.625Z,10.55
2017-10-16T16:25:51.495Z,10.38
2017-10-16T16:28:19.334Z,9.55
2017-10-16T16:30:47.150Z,11.25
2017-10-16T16:33:15.774Z,10.88
2017-10-16T16:35:43.565Z,9.90
2017-10-16T16:38:11.365Z,9.70
2017-10-16T16:40:39.984Z,9.43
2017-10-16T16:43:07.806Z,10.82
2017-10-16T16:45:36.419Z,12.35
2017-10-16T16:48:04.430Z,11.82
2017-10-16T16:50:32.249Z,11.30
2017-10-16T16:53:00.112Z,12.27
2017-10-16T16:55:27.975Z,13.32
2017-10-16T16:57:55.807Z,13.75
2017-10-16T17:00:24.417Z,14.07
2017-10-16T17:02:52.847Z,13.85
2017-10-16T17:05:20.701Z,12.65
2017-10-16T17:07:48.531Z,13.15
2017-10-16T17:10:16.401Z,13.85
2017-10-16T17:12:44.254Z,13.15
2017-10-16T17:15:12.112Z,13.32
2017-10-16T17:17:40.035Z,13.05
2017-10-16T17:20:07.906Z,13.60
2017-10-16T17:22:36.771Z,12.25
2017-10-16T17:25:04.710Z,12.43
2017-10-16T17:27:32.596Z,14.65
2017-10-16T17:30:00.550Z,13.65
2017-10-16T17:32:28.551Z,12.52
2017-10-16T17:34:57.233Z,15.13
2017-10-16T17:37:25.111Z,16.65
2017-10-16T17:39:53.760Z,17.15
2017-10-16T17:42:21.633Z,18.17
2017-10-16T17:44:49.513Z,17.42
2017-10-16T17:47:18.162Z,16.25
2017-10-16T17:49:45.996Z,14.90
2017-10-16T17:52:13.910Z,16.77
2017-10-16T17:54:41.843Z,15.20
2017-10-16T17:57:09.728Z,14.63
2017-10-16T17:59:37.625Z,16.85
2017-10-16T18:02:06.291Z,16.10
2017-10-16T18:04:35.071Z,17.65
2017-10-16T18:07:02.966Z,17.50
2017-10-16T18:09:30.917Z,17.17
2017-10-16T18:11:58.798Z,16.42
2017-10-16T18:14:27.429Z,14.10
2017-10-16T18:16:55.383Z,15.63
2017-10-16T18:19:23.251Z,14.02
2017-10-16T18:21:51.072Z,16.87
2017-10-16T18:24:19.740Z,16.50
2017-10-16T18:26:48.472Z,17.12
2017-10-16T18:29:16.328Z,17.73
2017-10-16T18:31:44.213Z,18.42
2017-10-16T18:34:12.090Z,17.62
2017-10-16T18:36:39.930Z,18.52
2017-10-16T18:39:07.894Z,17.40
2017-10-16T18:41:35.779Z,17.25
2017-10-16T18:44:03.612Z,18.48
2017-10-16T18:46:31.519Z,16.87
2017-10-16T18:48:59.422Z,18.52
2017-10-16T18:51:27.284Z,17.80
2017-10-16T18:53:55.281Z,18.00
2017-10-16T18:56:33.056Z,18.87
2017-10-16T18:59:00.945Z,16.55
2017-10-16T19:01:28.776Z,16.80
2017-10-16T19:03:56.678Z,17.12
2017-10-16T19:06:24.826Z,18.42
2017-10-16T19:08:53.011Z,16.77
2017-10-16T19:11:20.866Z,17.50
2017-10-16T19:13:48.747Z,17.90
2017-10-16T19:16:16.595Z,19.55
2017-10-16T19:18:44.446Z,20.55
2017-10-16T19:21:12.329Z,19.70
2017-10-16T19:23:40.192Z,17.80
2017-10-16T19:26:08.060Z,17.20
2017-10-16T19:28:36.001Z,21.67
2017-10-16T19:31:03.855Z,19.12
2017-10-16T19:33:32.505Z,20.20
2017-10-16T19:36:01.530Z,18.58
2017-10-16T19:38:29.422Z,20.48
2017-10-16T19:40:58.268Z,19.02
2017-10-16T19:43:26.312Z,22.08
2017-10-16T19:45:54.233Z,20.15
2017-10-16T19:48:22.360Z,20.58
2017-10-16T19:50:50.306Z,21.58
2017-10-16T19:53:18.244Z,20.35
2017-10-16T19:55:46.138Z,19.10
2017-10-16T19:58:14.032Z,20.50
2017-10-16T20:00:42.042Z,21.45
2017-10-16T20:03:10.136Z,20.85
2017-10-16T20:05:39.052Z,21.50
2017-10-16T20:08:07.038Z,21.33
2017-10-16T20:10:34.902Z,20.50
2017-10-16T20:13:03.031Z,20.33
2017-10-16T20:15:31.058Z,21.12
2017-10-16T20:17:58.967Z,19.60
2017-10-16T20:20:26.983Z,20.50
2017-10-16T20:22:55.626Z,21.05
2017-10-16T20:25:23.509Z,20.15
2017-10-16T20:27:52.181Z,20.48
2017-10-16T20:30:20.884Z,18.80
2017-10-16T20:32:49.634Z,20.85
2017-10-16T20:35:17.540Z,23.20
2017-10-16T20:37:45.411Z,23.23
2017-10-16T20:40:13.238Z,23.75
2017-10-16T20:42:42.421Z,21.73
2017-10-16T20:45:10.402Z,23.40
2017-10-16T20:47:38.322Z,23.40
2017-10-16T20:50:06.420Z,22.52
2017-10-16T20:52:34.303Z,20.85
2017-10-16T20:55:02.373Z,21.17
2017-10-16T20:57:30.357Z,22.13
2017-10-16T20:59:58.440Z,21.50
2017-10-16T21:02:26.353Z,20.40
2017-10-16T21:04:54.272Z,19.37
2017-10-16T21:07:22.538Z,20.15
2017-10-16T21:09:50.406Z,20.58
2017-10-16T21:12:18.365Z,19.23
2017-10-16T21:14:47.373Z,18.85
2017-10-16T21:17:15.321Z,19.37
2017-10-16T21:19:43.244Z,20.65
2017-10-16T21:22:11.113Z,19.75
2017-10-16T21:24:38.958Z,18.25
2017-10-16T21:27:06.850Z,20.10
2017-10-16T21:29:34.702Z,20.35
2017-10-16T21:32:03.089Z,19.77
2017-10-16T21:34:30.984Z,21.70
2017-10-16T21:36:59.878Z,20.62
2017-10-16T21:39:27.728Z,21.52
2017-10-16T21:41:56.388Z,19.50
2017-10-16T21:44:25.016Z,20.75
2017-10-16T21:46:52.901Z,20.85
2017-10-16T21:49:20.875Z,19.45
2017-10-16T21:51:48.869Z,21.52
2017-10-16T21:54:16.970Z,20.45
2017-10-16T21:56:44.885Z,21.48
2017-10-16T21:59:12.724Z,21.15
2017-10-16T22:01:40.605Z,22.27
2017-10-16T22:04:08.526Z,19.80
2017-10-16T22:06:37.146Z,21.45
2017-10-16T22:09:05.009Z,20.95
2017-10-16T22:11:32.940Z,20.50
2017-10-16T22:14:00.799Z,20.35
2017-10-16T22:16:28.638Z,20.98
2017-10-16T22:18:57.332Z,21.50
2017-10-16T22:21:25.955Z,23.05
2017-10-16T22:23:53.825Z,20.33
2017-10-16T22:26:21.716Z,21.23
2017-10-16T22:28:49.552Z,21.12
2017-10-16T22:31:17.423Z,20.98
2017-10-16T22:33:45.330Z,21.87
2017-10-16T22:36:13.943Z,22.60
2017-10-16T22:38:41.797Z,23.08
2017-10-16T22:41:09.690Z,23.23
2017-10-16T22:43:37.549Z,23.38
2017-10-16T22:46:05.393Z,21.70
2017-10-16T23:02:01.900Z,22.58
2017-10-16T23:04:29.728Z,23.80
2017-10-16T23:06:57.595Z,24.23
2017-10-16T23:09:25.486Z,22.85
2017-10-16T23:11:54.115Z,21.73
2017-10-16T23:14:21.945Z,23.70
2017-10-16T23:16:49.849Z,23.98
2017-10-16T23:19:17.731Z,24.27
2017-10-16T23:21:45.579Z,25.37
2017-10-16T23:24:13.470Z,23.98
2017-10-16T23:26:42.148Z,25.35
2017-10-16T23:29:10.009Z,23.50
2017-10-16T23:31:37.900Z,23.60
2017-10-16T23:34:06.510Z,23.60
2017-10-16T23:36:34.387Z,24.48
2017-10-16T23:39:02.270Z,25.88
2017-10-16T23:41:30.103Z,23.95
2017-10-16T23:43:57.942Z,25.55
2017-10-16T23:46:25.876Z,23.02
2017-10-16T23:48:53.707Z,26.35
2017-10-16T23:51:21.550Z,25.35
2017-10-16T23:53:49.445Z,24.77
2017-10-16T23:56:17.303Z,23.20
2017-10-16T23:58:45.151Z,23.85
